createdAt,value
2023-03-12T00:01:24.248Z,97354.28
2023-03-12T00:03:51.416Z,97358.88
2023-03-12T00:06:19.020Z,97371.25
2023-03-12T00:08:45.733Z,97377.56
2023-03-12T00:11:15.667Z,97378.72
2023-03-12T00:13:43.212Z,97377.06
2023-03-12T00:16:15.724Z,97383.50
2023-03-12T00:18:43.200Z,97385.25
2023-03-12T00:21:10.808Z,97386.78
2023-03-12T00:23:37.553Z,97380.72
2023-03-12T00:26:07.322Z,97399.28
2023-03-12T00:28:35.052Z,97400.22
2023-03-12T00:31:03.317Z,97401.28
2023-03-12T00:33:30.152Z,97386.56
2023-03-12T00:36:00.278Z,97411.22
2023-03-12T00:38:26.966Z,97410.28
2023-03-12T00:40:53.653Z,97413.19
2023-03-12T00:43:20.454Z,97424.88
2023-03-12T00:45:47.123Z,97415.19
2023-03-12T00:48:13.827Z,97424.88
2023-03-12T00:50:40.711Z,97424.97
2023-03-12T00:53:07.594Z,97415.06
2023-03-12T00:55:34.286Z,97428.47
2023-03-12T00:58:01.130Z,97435.63
2023-03-12T01:00:28.159Z,97444.75
2023-03-12T01:02:55.058Z,97437.94
2023-03-12T01:05:21.801Z,97437.28
2023-03-12T01:07:48.591Z,97457.50
2023-03-12T01:10:17.185Z,97470.56
2023-03-12T01:12:45.777Z,97474.03
2023-03-12T01:15:17.629Z,97479.63
2023-03-12T01:17:44.369Z,97474.56
2023-03-12T01:20:11.329Z,97470.53
2023-03-12T01:22:38.253Z,97479.59
2023-03-12T01:25:05.263Z,97494.00
2023-03-12T01:27:32.128Z,97484.03
2023-03-12T01:29:59.092Z,97498.25
2023-03-12T01:32:26.033Z,97503.59
2023-03-12T01:34:52.743Z,97508.00
2023-03-12T01:37:19.755Z,97504.03
2023-03-12T01:39:46.534Z,97503.88
2023-03-12T01:42:13.343Z,97510.81
2023-03-12T01:45:00.432Z,97508.47
2023-03-12T01:47:32.991Z,97509.50
2023-03-12T01:50:04.531Z,97516.72
2023-03-12T01:52:36.316Z,97522.81
2023-03-12T01:55:09.498Z,97532.06
2023-03-12T01:57:48.509Z,97540.00
2023-03-12T02:00:20.095Z,97537.50
2023-03-12T02:02:49.471Z,97540.59
2023-03-12T02:05:27.258Z,97542.06
2023-03-12T02:07:54.138Z,97551.72
2023-03-12T02:10:21.958Z,97548.91
2023-03-12T02:12:48.706Z,97551.06
2023-03-12T02:15:15.737Z,97550.75
2023-03-12T02:17:42.818Z,97556.91
2023-03-12T02:20:47.191Z,97555.88
2023-03-12T02:23:26.515Z,97550.41
2023-03-12T02:25:55.830Z,97560.19
2023-03-12T02:28:25.644Z,97571.50
2023-03-12T02:30:57.118Z,97568.53
2023-03-12T02:33:23.985Z,97569.97
2023-03-12T02:35:52.250Z,97567.63
2023-03-12T02:38:36.363Z,97584.13
2023-03-12T02:41:25.439Z,97591.22
2023-03-12T02:43:57.225Z,97598.41
2023-03-12T02:46:24.009Z,97589.91
2023-03-12T02:48:51.491Z,97594.53
2023-03-12T02:51:18.318Z,97592.41
2023-03-12T02:53:45.266Z,97592.78
2023-03-12T02:56:12.189Z,97602.13
2023-03-12T02:58:39.342Z,97608.00
2023-03-12T03:01:06.230Z,97610.56
2023-03-12T03:03:32.927Z,97621.88
2023-03-12T03:05:59.674Z,97626.09
2023-03-12T03:08:26.345Z,97635.53
2023-03-12T03:10:53.368Z,97634.41
2023-03-12T03:13:20.062Z,97639.44
2023-03-12T03:15:46.883Z,97640.25
2023-03-12T03:18:13.762Z,97655.03
2023-03-12T03:20:40.568Z,97664.16
2023-03-12T03:23:07.127Z,97660.19
2023-03-12T03:25:34.024Z,97665.69
2023-03-12T03:28:00.908Z,97671.78
2023-03-12T03:30:27.747Z,97680.59
2023-03-12T03:32:54.494Z,97680.50
2023-03-12T03:35:22.616Z,97688.28
2023-03-12T03:37:49.473Z,97689.78
2023-03-12T03:40:16.656Z,97665.88
2023-03-12T03:42:43.435Z,97691.53
2023-03-12T03:45:10.879Z,97690.41
2023-03-12T03:47:39.388Z,97691.94
2023-03-12T03:50:09.832Z,97707.69
2023-03-12T03:52:36.754Z,97702.66
2023-03-12T03:55:03.709Z,97704.44
2023-03-12T03:57:31.735Z,97704.66
2023-03-12T04:00:00.309Z,97719.09
2023-03-12T04:02:28.999Z,97726.06
2023-03-12T04:04:59.772Z,97726.78
2023-03-12T04:07:30.224Z,97733.22
2023-03-12T04:09:58.187Z,97735.38
2023-03-12T04:12:26.503Z,97750.56
2023-03-12T04:14:55.859Z,97751.56
2023-03-12T04:17:22.874Z,97748.28
2023-03-12T04:19:49.742Z,97759.72
2023-03-12T04:22:17.876Z,97744.91
2023-03-12T04:24:45.485Z,97753.69
2023-03-12T04:27:12.847Z,97747.13
2023-03-12T04:29:40.876Z,97749.97
2023-03-12T04:32:07.915Z,97739.47
2023-03-12T04:34:35.678Z,97762.78
2023-03-12T04:37:05.341Z,97768.72
2023-03-12T04:39:32.005Z,97772.03
2023-03-12T04:41:59.091Z,97772.84
2023-03-12T04:44:27.786Z,97777.06
2023-03-12T04:46:54.783Z,97784.50
2023-03-12T04:49:24.474Z,97775.44
2023-03-12T04:51:51.488Z,97763.94
2023-03-12T04:54:21.045Z,97805.66
2023-03-12T04:56:48.890Z,97794.97
2023-03-12T04:59:16.231Z,97809.59
2023-03-12T05:01:44.649Z,97809.78
2023-03-12T05:04:17.872Z,97816.06
2023-03-12T05:06:44.700Z,97822.19
2023-03-12T05:09:11.373Z,97833.28
2023-03-12T05:11:40.383Z,97826.03
2023-03-12T05:14:11.666Z,97823.13
2023-03-12T05:16:39.117Z,97815.81
2023-03-12T05:19:06.405Z,97824.13
2023-03-12T05:21:33.588Z,97827.78
2023-03-12T05:24:00.600Z,97822.69
2023-03-12T05:26:33.818Z,97826.78
2023-03-12T05:29:09.228Z,97833.53
2023-03-12T05:31:36.639Z,97837.00
2023-03-12T05:34:05.369Z,97833.91
2023-03-12T05:36:35.318Z,97847.63
2023-03-12T05:39:02.178Z,97846.97
2023-03-12T05:41:31.927Z,97851.38
2023-03-12T05:44:05.257Z,97859.72
2023-03-12T05:46:32.071Z,97858.84
2023-03-12T05:48:59.821Z,97856.47
2023-03-12T05:51:26.797Z,97857.09
2023-03-12T05:53:53.538Z,97858.94
2023-03-12T05:56:20.226Z,97846.59
2023-03-12T05:58:49.840Z,97861.31
2023-03-12T06:01:21.591Z,97853.63
2023-03-12T06:03:48.646Z,97872.72
2023-03-12T06:06:15.958Z,97890.72
2023-03-12T06:08:43.338Z,97880.50
2023-03-12T06:11:12.412Z,97876.75
2023-03-12T06:13:40.142Z,97873.13
2023-03-12T06:16:17.191Z,97881.78
2023-03-12T06:18:44.020Z,97886.28
2023-03-12T06:21:19.993Z,97886.38
2023-03-12T06:23:48.695Z,97887.81
2023-03-12T06:26:23.587Z,97895.66
2023-03-12T06:28:51.530Z,97894.94
2023-03-12T06:31:19.116Z,97894.28
2023-03-12T06:33:45.934Z,97896.84
2023-03-12T06:36:13.146Z,97899.50
2023-03-12T06:38:40.639Z,97896.94
2023-03-12T06:41:10.794Z,97906.19
2023-03-12T06:43:38.623Z,97909.84
2023-03-12T06:46:07.313Z,97905.31
2023-03-12T06:48:36.758Z,97907.22
2023-03-12T06:51:04.851Z,97901.78
2023-03-12T06:53:32.270Z,97893.63
2023-03-12T06:55:59.430Z,97913.72
2023-03-12T06:58:26.142Z,97921.34
2023-03-12T07:00:54.507Z,97924.91
2023-03-12T07:03:21.695Z,97931.66
2023-03-12T07:05:50.361Z,97934.91
2023-03-12T07:08:18.682Z,97938.59
2023-03-12T07:10:46.354Z,97939.72
2023-03-12T07:13:13.547Z,97951.34
2023-03-12T07:15:40.588Z,97948.88
2023-03-12T07:18:09.300Z,97962.59
2023-03-12T07:20:41.055Z,97968.09
2023-03-12T07:23:08.048Z,97961.59
2023-03-12T07:25:42.765Z,97973.66
2023-03-12T07:28:10.820Z,97976.88
2023-03-12T07:30:37.986Z,97982.53
2023-03-12T07:33:07.205Z,97988.22
2023-03-12T07:35:34.081Z,97984.38
2023-03-12T07:38:01.952Z,97984.09
2023-03-12T07:40:28.836Z,97987.84
2023-03-12T07:42:56.086Z,97995.72
2023-03-12T07:45:23.317Z,97998.34
2023-03-12T07:47:50.806Z,97998.59
2023-03-12T07:50:18.825Z,97999.06
2023-03-12T07:52:46.759Z,97998.16
2023-03-12T07:55:13.893Z,98014.09
2023-03-12T07:57:40.866Z,98011.88
2023-03-12T08:00:10.451Z,98026.28
2023-03-12T08:02:40.449Z,98000.88
2023-03-12T08:05:07.886Z,98024.97
2023-03-12T08:07:35.947Z,98027.78
2023-03-12T08:10:05.977Z,98036.53
2023-03-12T08:12:32.828Z,98028.19
2023-03-12T08:14:59.676Z,98031.28
2023-03-12T08:17:26.459Z,98021.34
2023-03-12T08:19:53.210Z,98037.22
2023-03-12T08:22:19.847Z,98042.50
2023-03-12T08:24:46.599Z,98033.84
2023-03-12T08:27:13.619Z,98033.16
2023-03-12T08:29:40.811Z,98033.56
2023-03-12T08:32:10.817Z,98027.38
2023-03-12T08:34:37.686Z,98040.34
2023-03-12T08:37:04.439Z,98038.19
2023-03-12T08:39:31.583Z,98030.16
2023-03-12T08:41:58.711Z,98039.97
2023-03-12T08:44:25.939Z,98039.75
2023-03-12T08:46:53.054Z,98028.22
2023-03-12T08:49:21.052Z,98025.63
2023-03-12T08:51:47.990Z,98044.66
2023-03-12T08:54:14.965Z,98033.97
2023-03-12T08:56:46.575Z,98034.09
2023-03-12T08:59:13.750Z,98043.53
2023-03-12T09:01:43.546Z,98039.41
2023-03-12T09:04:10.952Z,98039.72
2023-03-12T09:06:38.484Z,98047.72
2023-03-12T09:09:05.857Z,98037.84
2023-03-12T09:11:33.937Z,98038.25
2023-03-12T09:14:36.681Z,98042.34
2023-03-12T09:16:49.287Z,98033.81
2023-03-12T09:19:15.990Z,98041.16
2023-03-12T09:21:42.715Z,98044.94
2023-03-12T09:24:11.039Z,98050.09
2023-03-12T09:26:37.762Z,98042.31
2023-03-12T09:29:04.349Z,98046.47
2023-03-12T09:31:31.603Z,98020.72
2023-03-12T09:33:58.307Z,98044.72
2023-03-12T09:36:24.995Z,98045.22
2023-03-12T09:38:51.665Z,98037.25
2023-03-12T09:41:23.000Z,98043.88
2023-03-12T09:43:52.257Z,98039.81
2023-03-12T09:46:35.043Z,98050.25
2023-03-12T09:49:06.277Z,98049.00
2023-03-12T09:51:44.174Z,98043.09
2023-03-12T09:54:24.960Z,98037.81
2023-03-12T09:56:55.037Z,98036.16
2023-03-12T09:59:22.428Z,98034.56
2023-03-12T10:01:57.419Z,98041.91
2023-03-12T10:04:59.336Z,98042.75
2023-03-12T10:07:42.916Z,98038.69
2023-03-12T10:10:27.496Z,98040.44
2023-03-12T10:13:02.714Z,98052.06
2023-03-12T10:15:57.647Z,98044.09
2023-03-12T10:18:35.734Z,98049.38
2023-03-12T10:21:02.487Z,98042.38
2023-03-12T10:24:04.292Z,98029.59
2023-03-12T10:26:37.054Z,98031.56
2023-03-12T10:29:14.002Z,98033.22
2023-03-12T10:32:07.038Z,98034.03
2023-03-12T10:34:42.580Z,98035.56
2023-03-12T10:37:22.655Z,98039.56
2023-03-12T10:39:50.064Z,98028.06
2023-03-12T10:42:26.066Z,98038.03
2023-03-12T10:44:57.785Z,98038.25
2023-03-12T10:47:42.498Z,98038.94
2023-03-12T10:50:18.518Z,98033.06
2023-03-12T10:52:47.466Z,98036.31
2023-03-12T10:55:23.284Z,98031.28
2023-03-12T10:57:50.939Z,98037.38
2023-03-12T11:00:22.045Z,98033.03
2023-03-12T11:02:58.844Z,98027.84
2023-03-12T11:05:31.243Z,98043.44
2023-03-12T11:08:03.880Z,98040.22
2023-03-12T11:10:46.630Z,98046.22
2023-03-12T11:13:30.724Z,98051.06
2023-03-12T11:16:00.620Z,98034.25
2023-03-12T11:18:27.339Z,98039.09
2023-03-12T11:21:08.968Z,98039.56
2023-03-12T11:23:38.837Z,98040.44
2023-03-12T11:26:20.928Z,98038.63
2023-03-12T11:28:55.323Z,98039.19
2023-03-12T11:31:24.683Z,98046.28
2023-03-12T11:33:54.724Z,98038.19
2023-03-12T11:36:43.026Z,98025.44
2023-03-12T11:39:25.746Z,98032.53
2023-03-12T11:42:16.401Z,98034.44
2023-03-12T11:44:58.626Z,98027.59
2023-03-12T11:48:10.589Z,98029.00
2023-03-12T11:51:23.153Z,98033.59
2023-03-12T11:54:38.917Z,98028.22
2023-03-12T11:57:42.252Z,98025.41
2023-03-12T12:00:17.324Z,98031.56
2023-03-12T12:03:09.872Z,98033.84
2023-03-12T12:05:49.059Z,98034.84
2023-03-12T12:08:36.937Z,98030.19
2023-03-12T12:11:26.489Z,98026.00
2023-03-12T12:14:20.911Z,98031.91
2023-03-12T12:17:21.844Z,98021.97
2023-03-12T12:20:09.228Z,98017.88
2023-03-12T12:22:48.306Z,98023.84
2023-03-12T12:25:18.012Z,98016.59
2023-03-12T12:27:53.301Z,98018.00
2023-03-12T12:30:28.176Z,98000.41
2023-03-12T12:33:15.547Z,98011.38
2023-03-12T12:35:43.255Z,98008.38
2023-03-12T12:38:21.766Z,98007.03
2023-03-12T12:40:54.468Z,98001.69
2023-03-12T12:43:30.098Z,97982.72
2023-03-12T12:46:02.102Z,97995.41
2023-03-12T12:48:35.596Z,97981.78
2023-03-12T12:51:06.422Z,97981.91
2023-03-12T12:53:38.212Z,97989.84
2023-03-12T12:56:33.017Z,97988.03
2023-03-12T12:59:03.583Z,97980.38
2023-03-12T13:01:32.800Z,97982.69
2023-03-12T13:04:13.620Z,97984.19
2023-03-12T13:06:57.254Z,97979.53
2023-03-12T13:09:40.238Z,97982.13
2023-03-12T13:12:28.418Z,97966.41
2023-03-12T13:14:56.973Z,97972.75
2023-03-12T13:17:28.261Z,97960.28
2023-03-12T13:20:17.845Z,97967.88
2023-03-12T13:23:03.748Z,97967.13
2023-03-12T13:25:36.201Z,97960.84
2023-03-12T13:28:26.302Z,97957.59
2023-03-12T13:30:54.288Z,97957.59
2023-03-12T13:33:41.434Z,97953.75
2023-03-12T13:36:24.021Z,97962.06
2023-03-12T13:39:01.043Z,97963.50
2023-03-12T13:41:36.099Z,97972.25
2023-03-12T13:44:27.416Z,97965.56
2023-03-12T13:47:12.086Z,97961.63
2023-03-12T13:49:59.239Z,97966.47
2023-03-12T13:52:32.527Z,97963.16
2023-03-12T13:55:03.316Z,97963.47
2023-03-12T13:57:54.726Z,97966.75
2023-03-12T14:00:29.187Z,97964.09
2023-03-12T14:03:20.131Z,97959.63
2023-03-12T14:06:05.176Z,97967.66
2023-03-12T14:08:50.768Z,97969.25
2023-03-12T14:11:37.658Z,97965.66
2023-03-12T14:14:24.478Z,97969.66
2023-03-12T14:16:54.818Z,97969.66
2023-03-12T14:19:27.388Z,97975.00
2023-03-12T14:21:55.980Z,97976.75
2023-03-12T14:24:29.991Z,97978.88
2023-03-12T14:26:57.942Z,97975.47
2023-03-12T14:29:45.476Z,97972.72
2023-03-12T14:32:33.626Z,97974.88
2023-03-12T14:35:33.349Z,97976.69
2023-03-12T14:38:03.485Z,97965.75
2023-03-12T14:40:48.032Z,97971.94
2023-03-12T14:43:20.645Z,97977.25
2023-03-12T14:45:51.974Z,97974.88
2023-03-12T14:48:24.106Z,97976.53
2023-03-12T14:50:50.946Z,97972.97
2023-03-12T14:53:38.003Z,97978.97
2023-03-12T14:56:14.902Z,97979.78
2023-03-12T14:58:47.421Z,97968.41
2023-03-12T15:01:22.630Z,97981.44
2023-03-12T15:03:53.554Z,97970.63
2023-03-12T15:06:29.648Z,97969.03
2023-03-12T15:08:57.615Z,97971.16
2023-03-12T15:11:27.562Z,97967.75
2023-03-12T15:13:56.302Z,97974.88
2023-03-12T15:16:23.764Z,97974.50
2023-03-12T15:18:51.051Z,97979.59
2023-03-12T15:21:17.957Z,97979.06
2023-03-12T15:23:46.997Z,97976.63
2023-03-12T15:26:19.654Z,97974.16
2023-03-12T15:29:15.222Z,97961.38
2023-03-12T15:31:43.126Z,97964.41
2023-03-12T15:34:12.120Z,97969.91
2023-03-12T15:36:48.245Z,97970.59
2023-03-12T15:39:47.492Z,97972.84
2023-03-12T15:42:19.827Z,97967.69
2023-03-12T15:44:49.690Z,97982.59
2023-03-12T15:47:23.103Z,97962.50
2023-03-12T15:50:09.866Z,97965.94
2023-03-12T15:52:36.981Z,97965.09
2023-03-12T15:55:09.862Z,97969.75
2023-03-12T15:57:56.584Z,97975.91
2023-03-12T16:00:25.780Z,97977.88
2023-03-12T16:02:56.621Z,97983.63
2023-03-12T16:05:28.327Z,97989.41
2023-03-12T16:07:55.101Z,97992.81
2023-03-12T16:10:24.351Z,97997.19
2023-03-12T16:13:01.286Z,97982.72
2023-03-12T16:15:37.055Z,98009.75
2023-03-12T16:18:04.614Z,98004.56
2023-03-12T16:20:31.533Z,98025.59
2023-03-12T16:22:58.294Z,98020.66
2023-03-12T16:25:25.834Z,98021.47
2023-03-12T16:27:58.116Z,98023.81
2023-03-12T16:30:33.944Z,98021.34
2023-03-12T16:33:02.284Z,98036.19
2023-03-12T16:35:31.260Z,98027.13
2023-03-12T16:38:00.911Z,98035.84
2023-03-12T16:40:33.787Z,98039.06
2023-03-12T16:43:03.862Z,98041.84
2023-03-12T16:45:33.810Z,98044.03
2023-03-12T16:48:03.684Z,98040.00
2023-03-12T16:50:30.858Z,98038.22
2023-03-12T16:52:58.030Z,98056.22
2023-03-12T16:55:30.435Z,98062.25
2023-03-12T16:58:02.120Z,98062.72
2023-03-12T17:00:33.174Z,98079.09
2023-03-12T17:03:00.831Z,98088.19
2023-03-12T17:05:29.436Z,98091.41
2023-03-12T17:07:57.219Z,98092.31
2023-03-12T17:10:24.847Z,98101.94
2023-03-12T17:12:52.778Z,98105.50
2023-03-12T17:15:30.704Z,98120.13
2023-03-12T17:17:59.383Z,98117.41
2023-03-12T17:20:26.104Z,98114.56
2023-03-12T17:22:53.194Z,98112.22
2023-03-12T17:25:28.338Z,98124.22
2023-03-12T17:27:58.419Z,98121.41
2023-03-12T17:30:27.222Z,98133.91
2023-03-12T17:33:00.005Z,98137.34
2023-03-12T17:35:26.895Z,98128.28
2023-03-12T17:37:53.491Z,98128.41
2023-03-12T17:40:20.280Z,98137.56
2023-03-12T17:42:46.843Z,98147.19
2023-03-12T17:45:13.580Z,98145.34
2023-03-12T17:47:40.181Z,98152.84
2023-03-12T17:50:07.844Z,98157.22
2023-03-12T17:52:34.747Z,98156.63
2023-03-12T17:55:01.618Z,98169.00
2023-03-12T17:57:28.263Z,98177.81
2023-03-12T17:59:54.957Z,98180.84
2023-03-12T18:02:22.391Z,98189.34
2023-03-12T18:04:49.329Z,98199.94
2023-03-12T18:07:15.993Z,98206.97
2023-03-12T18:09:42.752Z,98206.06
2023-03-12T18:12:11.126Z,98221.78
2023-03-12T18:14:38.206Z,98222.47
2023-03-12T18:17:05.007Z,98221.78
2023-03-12T18:19:31.892Z,98236.22
2023-03-12T18:21:58.588Z,98232.06
2023-03-12T18:24:25.399Z,98248.88
2023-03-12T18:26:53.400Z,98253.59
2023-03-12T18:29:20.234Z,98256.06
2023-03-12T18:31:46.956Z,98257.81
2023-03-12T18:34:13.686Z,98267.19
2023-03-12T18:36:40.251Z,98254.75
2023-03-12T18:39:06.914Z,98258.88
2023-03-12T18:41:33.643Z,98244.66
2023-03-12T18:44:00.630Z,98253.31
2023-03-12T18:46:28.242Z,98250.75
2023-03-12T18:48:54.963Z,98251.97
2023-03-12T18:51:21.617Z,98264.88
2023-03-12T18:53:48.509Z,98271.78
2023-03-12T18:56:15.124Z,98281.19
2023-03-12T18:58:41.701Z,98284.59
2023-03-12T19:01:08.316Z,98278.09
2023-03-12T19:03:36.484Z,98284.94
2023-03-12T19:06:08.838Z,98293.59
2023-03-12T19:08:37.363Z,98292.88
2023-03-12T19:11:05.821Z,98304.72
2023-03-12T19:13:32.815Z,98300.41
2023-03-12T19:16:01.502Z,98294.78
2023-03-12T19:18:28.904Z,98298.41
2023-03-12T19:20:55.581Z,98302.75
2023-03-12T19:23:23.291Z,98313.28
2023-03-12T19:25:50.109Z,98308.03
2023-03-12T19:28:16.950Z,98303.09
2023-03-12T19:30:43.617Z,98311.34
2023-03-12T19:33:10.490Z,98312.38
2023-03-12T19:35:41.686Z,98317.75
2023-03-12T19:38:09.324Z,98318.41
2023-03-12T19:40:35.956Z,98317.78
2023-03-12T19:43:03.100Z,98318.09
2023-03-12T19:45:29.785Z,98331.69
2023-03-12T19:47:56.807Z,98330.47
2023-03-12T19:50:24.215Z,98340.59
2023-03-12T19:52:51.049Z,98346.06
2023-03-12T19:55:17.869Z,98322.75
2023-03-12T19:57:44.744Z,98353.03
2023-03-12T20:00:12.287Z,98351.41
2023-03-12T20:02:39.588Z,98358.31
2023-03-12T20:05:08.253Z,98359.03
2023-03-12T20:07:36.018Z,98361.72
2023-03-12T20:10:04.348Z,98371.59
2023-03-12T20:12:32.269Z,98380.25
2023-03-12T20:14:59.022Z,98371.81
2023-03-12T20:17:25.878Z,98380.25
2023-03-12T20:19:52.804Z,98390.78
2023-03-12T20:22:19.483Z,98397.13
2023-03-12T20:24:46.116Z,98401.56
2023-03-12T20:27:12.879Z,98405.97
2023-03-12T20:29:39.657Z,98419.34
2023-03-12T20:32:06.360Z,98420.56
2023-03-12T20:34:33.056Z,98419.31
2023-03-12T20:36:59.719Z,98427.16
2023-03-12T20:39:26.402Z,98426.25
2023-03-12T20:41:53.134Z,98438.59
2023-03-12T20:44:19.878Z,98442.91
2023-03-12T20:46:46.647Z,98441.44
2023-03-12T20:49:13.657Z,98444.31
2023-03-12T20:51:44.592Z,98453.50
2023-03-12T20:54:12.275Z,98450.56
2023-03-12T20:56:43.410Z,98459.22
2023-03-12T20:59:10.923Z,98464.75
2023-03-12T21:01:37.920Z,98461.09
2023-03-12T21:04:04.899Z,98468.72
2023-03-12T21:06:31.768Z,98476.16
2023-03-12T21:08:58.949Z,98471.47
2023-03-12T21:11:29.268Z,98479.69
2023-03-12T21:13:56.143Z,98477.41
2023-03-12T21:16:23.032Z,98477.13
2023-03-12T21:18:50.035Z,98490.75
2023-03-12T21:21:16.661Z,98487.53
2023-03-12T21:23:43.392Z,98494.81
2023-03-12T21:26:11.536Z,98507.41
2023-03-12T21:28:38.242Z,98490.41
2023-03-12T21:31:11.342Z,98509.59
2023-03-12T21:33:38.101Z,98511.28
2023-03-12T21:36:10.372Z,98512.28
2023-03-12T21:38:38.473Z,98512.19
2023-03-12T21:41:12.525Z,98519.91
2023-03-12T21:43:39.929Z,98525.69
2023-03-12T21:46:08.985Z,98528.53
2023-03-12T21:48:36.323Z,98530.72
2023-03-12T21:51:11.506Z,98540.19
2023-03-12T21:53:38.267Z,98533.59
2023-03-12T21:56:07.342Z,98541.28
2023-03-12T21:58:35.707Z,98544.97
2023-03-12T22:01:03.636Z,98545.97
2023-03-12T22:03:30.374Z,98550.91
2023-03-12T22:05:57.619Z,98556.22
2023-03-12T22:08:24.734Z,98551.69
2023-03-12T22:10:51.616Z,98555.22
2023-03-12T22:13:18.412Z,98550.88
2023-03-12T22:15:54.461Z,98548.13
2023-03-12T22:18:22.240Z,98546.50
2023-03-12T22:20:56.998Z,98546.03
2023-03-12T22:23:24.989Z,98549.78
2023-03-12T22:25:51.717Z,98546.75
2023-03-12T22:28:18.794Z,98540.28
2023-03-12T22:30:45.848Z,98539.38
2023-03-12T22:33:12.963Z,98546.38
2023-03-12T22:35:46.614Z,98549.38
2023-03-12T22:38:13.401Z,98550.44
2023-03-12T22:40:40.663Z,98542.47
2023-03-12T22:43:07.876Z,98540.84
2023-03-12T22:45:34.987Z,98531.56
2023-03-12T22:48:02.006Z,98529.81
2023-03-12T22:50:29.181Z,98528.81
2023-03-12T22:52:56.063Z,98530.47
2023-03-12T22:55:22.809Z,98530.66
2023-03-12T22:57:49.533Z,98528.97
2023-03-12T23:00:19.336Z,98526.59
2023-03-12T23:02:46.031Z,98513.50
2023-03-12T23:05:12.645Z,98515.63
2023-03-12T23:07:39.274Z,98519.25
2023-03-12T23:10:07.044Z,98527.53
2023-03-12T23:12:33.906Z,98522.38
2023-03-12T23:15:00.607Z,98526.63
2023-03-12T23:17:27.335Z,98535.22
2023-03-12T23:19:53.978Z,98534.59
2023-03-12T23:22:20.881Z,98528.03
2023-03-12T23:24:47.490Z,98522.41
2023-03-12T23:27:14.204Z,98537.19
2023-03-12T23:29:40.829Z,98551.00
2023-03-12T23:32:07.751Z,98542.44
2023-03-12T23:34:34.984Z,98534.28
2023-03-12T23:37:01.855Z,98532.19
2023-03-12T23:39:30.500Z,98522.09
2023-03-12T23:41:57.795Z,98533.34
2023-03-12T23:44:24.920Z,98531.44
2023-03-12T23:46:51.659Z,98511.56
2023-03-12T23:49:18.415Z,98520.19
2023-03-12T23:51:45.186Z,98522.25
2023-03-12T23:54:11.823Z,98517.44
2023-03-12T23:56:40.364Z,98531.19
2023-03-12T23:59:09.156Z,98529.59
